createdAt,value
2023-04-30T00:02:43.878Z,31.75
2023-04-30T00:06:45.719Z,31.30
2023-04-30T00:10:50.104Z,30.45
2023-04-30T00:14:51.851Z,33.05
2023-04-30T00:18:53.537Z,31.30
2023-04-30T00:22:55.873Z,33.47
2023-04-30T00:26:57.569Z,31.47
2023-04-30T00:31:00.353Z,32.35
2023-04-30T00:35:02.242Z,31.88
2023-04-30T00:39:04.082Z,31.00
2023-04-30T00:43:05.947Z,31.65
2023-04-30T00:47:07.667Z,31.50
2023-04-30T00:51:09.459Z,30.40
2023-04-30T00:55:14.374Z,31.35
2023-04-30T00:59:16.662Z,32.60
2023-04-30T01:03:18.859Z,32.53
2023-04-30T01:07:21.059Z,31.00
2023-04-30T01:11:29.826Z,30.10
2023-04-30T01:16:25.026Z,31.45
2023-04-30T01:20:29.600Z,30.20
2023-04-30T01:24:43.713Z,30.25
2023-04-30T01:28:46.382Z,29.52
2023-04-30T01:32:48.261Z,27.77
2023-04-30T01:37:02.398Z,29.48
2023-04-30T01:41:37.444Z,27.08
2023-04-30T01:46:04.566Z,26.15
2023-04-30T01:50:42.342Z,27.58
2023-04-30T01:54:59.013Z,27.20
2023-04-30T01:59:01.527Z,26.80
2023-04-30T02:03:03.440Z,29.67
2023-04-30T02:07:05.333Z,28.35
2023-04-30T02:11:09.728Z,27.38
2023-04-30T02:15:11.949Z,27.58
2023-04-30T02:19:13.683Z,25.83
2023-04-30T02:23:16.031Z,27.38
2023-04-30T02:27:18.296Z,28.03
2023-04-30T02:31:20.192Z,25.73
2023-04-30T02:35:21.834Z,24.13
2023-04-30T02:39:23.453Z,24.13
2023-04-30T02:43:25.285Z,25.42
2023-04-30T02:47:26.961Z,28.38
2023-04-30T02:51:28.818Z,28.10
2023-04-30T02:55:31.154Z,30.60
2023-04-30T02:59:32.821Z,29.10
2023-04-30T03:03:34.554Z,30.85
2023-04-30T03:07:36.440Z,28.98
2023-04-30T03:11:38.179Z,29.33
2023-04-30T03:15:39.878Z,25.80
2023-04-30T03:19:41.708Z,28.17
2023-04-30T03:23:43.530Z,30.83
2023-04-30T03:27:45.215Z,27.55
2023-04-30T03:31:46.920Z,27.95
2023-04-30T03:35:50.410Z,25.70
2023-04-30T03:39:52.406Z,26.48
2023-04-30T03:43:54.686Z,27.23
2023-04-30T03:47:56.466Z,25.90
2023-04-30T03:51:58.286Z,26.40
2023-04-30T03:56:00.373Z,26.70
2023-04-30T04:00:04.594Z,27.48
2023-04-30T04:04:06.536Z,25.83
2023-04-30T04:08:08.589Z,27.77
2023-04-30T04:12:10.624Z,27.58
2023-04-30T04:16:12.362Z,26.55
2023-04-30T04:20:14.481Z,26.67
2023-04-30T04:24:16.098Z,27.25
2023-04-30T04:28:17.913Z,28.45
2023-04-30T04:32:19.598Z,27.58
2023-04-30T04:36:21.525Z,27.77
2023-04-30T04:40:23.243Z,26.27
2023-04-30T04:44:24.947Z,26.65
2023-04-30T04:48:26.767Z,25.90
2023-04-30T04:52:28.524Z,27.55
2023-04-30T04:56:30.364Z,28.63
2023-04-30T05:00:32.968Z,27.75
2023-04-30T05:04:34.662Z,26.35
2023-04-30T05:08:36.349Z,27.95
2023-04-30T05:12:38.348Z,27.30
2023-04-30T05:16:40.392Z,27.88
2023-04-30T05:20:44.259Z,28.25
2023-04-30T05:24:46.244Z,27.52
2023-04-30T05:28:48.189Z,26.77
2023-04-30T05:32:52.554Z,24.58
2023-04-30T05:36:54.494Z,27.05
2023-04-30T05:40:56.372Z,26.58
2023-04-30T05:44:58.372Z,25.67
2023-04-30T05:49:00.148Z,24.05
2023-04-30T05:53:02.126Z,24.45
2023-04-30T05:57:04.177Z,27.40
2023-04-30T06:01:06.147Z,28.00
2023-04-30T06:05:08.926Z,28.70
2023-04-30T06:09:10.749Z,29.83
2023-04-30T06:13:12.436Z,28.30
2023-04-30T06:17:14.223Z,29.30
2023-04-30T06:21:16.011Z,29.98
2023-04-30T06:25:17.649Z,30.60
2023-04-30T06:29:19.289Z,30.85
2023-04-30T06:33:21.661Z,30.08
2023-04-30T06:37:23.737Z,33.87
2023-04-30T06:41:25.578Z,28.63
2023-04-30T06:45:27.326Z,28.13
2023-04-30T06:49:29.130Z,31.08
2023-04-30T06:53:30.852Z,31.48
2023-04-30T06:57:32.521Z,32.45
2023-04-30T07:01:34.171Z,30.50
2023-04-30T07:05:35.889Z,30.48
2023-04-30T07:09:37.641Z,31.38
2023-04-30T07:13:39.317Z,34.05
2023-04-30T07:17:42.261Z,33.20
2023-04-30T07:21:43.929Z,34.13
2023-04-30T07:25:45.683Z,32.72
2023-04-30T07:29:47.400Z,34.33
2023-04-30T07:33:50.530Z,33.67
2023-04-30T07:41:53.883Z,31.70
2023-04-30T07:45:55.568Z,30.20
2023-04-30T07:49:57.360Z,28.80
2023-04-30T07:53:59.244Z,28.13
2023-04-30T07:58:02.480Z,25.73
2023-04-30T08:02:04.313Z,23.98
2023-04-30T08:06:07.084Z,27.38
2023-04-30T08:10:09.170Z,28.83
2023-04-30T08:14:11.068Z,29.75
2023-04-30T08:18:12.770Z,29.50
2023-04-30T08:22:14.455Z,22.75
2023-04-30T08:26:16.219Z,21.70
2023-04-30T08:30:17.947Z,26.55
2023-04-30T08:34:19.691Z,24.33
2023-04-30T08:38:21.417Z,20.77
2023-04-30T08:42:29.916Z,17.42
2023-04-30T08:46:35.567Z,18.38
2023-04-30T08:50:37.666Z,12.52
2023-04-30T08:54:39.661Z,7.10
2023-04-30T08:58:41.473Z,9.63
2023-04-30T09:02:43.955Z,7.38
2023-04-30T09:06:46.204Z,8.18
2023-04-30T09:10:48.055Z,6.82
2023-04-30T09:15:04.857Z,7.20
2023-04-30T09:19:06.790Z,6.90
2023-04-30T09:23:10.777Z,6.80
2023-04-30T09:27:20.024Z,4.43
2023-04-30T09:31:22.073Z,4.35
2023-04-30T09:35:44.475Z,4.83
2023-04-30T09:39:54.540Z,5.97
2023-04-30T09:43:57.415Z,5.35
2023-04-30T09:48:09.182Z,7.57
2023-04-30T09:52:18.812Z,3.67
2023-04-30T09:56:23.172Z,6.20
2023-04-30T10:00:25.287Z,5.40
2023-04-30T10:04:33.369Z,4.00
2023-04-30T10:08:42.293Z,5.57
2023-04-30T10:12:50.302Z,4.47
2023-04-30T10:16:57.833Z,6.03
2023-04-30T10:21:02.938Z,4.72
2023-04-30T10:25:05.322Z,4.18
2023-04-30T10:29:07.685Z,6.88
2023-04-30T10:33:34.431Z,5.43
2023-04-30T10:37:46.199Z,5.90
2023-04-30T10:41:49.425Z,6.30
2023-04-30T10:45:51.396Z,5.85
2023-04-30T10:49:53.540Z,5.03
2023-04-30T10:53:56.206Z,6.05
2023-04-30T10:58:01.119Z,4.97
2023-04-30T11:02:03.351Z,4.50
2023-04-30T11:06:22.446Z,3.83
2023-04-30T11:10:26.385Z,4.20
2023-04-30T11:14:31.534Z,4.43
2023-04-30T11:18:33.483Z,3.88
2023-04-30T11:22:37.926Z,3.70
2023-04-30T11:27:08.431Z,3.78
2023-04-30T11:31:10.553Z,4.10
2023-04-30T11:35:12.737Z,3.20
2023-04-30T11:39:15.098Z,2.60
2023-04-30T11:43:33.366Z,3.33
2023-04-30T11:47:42.418Z,2.60
2023-04-30T11:51:49.158Z,3.80
2023-04-30T11:55:52.652Z,2.60
2023-04-30T11:59:54.920Z,2.00
2023-04-30T12:03:57.588Z,1.60
2023-04-30T12:08:06.497Z,1.65
2023-04-30T12:12:08.124Z,1.70
2023-04-30T12:16:09.871Z,2.20
2023-04-30T12:20:13.177Z,1.83
2023-04-30T12:24:16.720Z,1.63
2023-04-30T12:28:18.771Z,1.55
2023-04-30T12:32:22.751Z,2.80
2023-04-30T12:36:31.617Z,2.60
2023-04-30T12:40:33.764Z,3.10
2023-04-30T12:44:47.296Z,1.92
2023-04-30T12:48:49.162Z,2.85
2023-04-30T12:52:51.255Z,1.30
2023-04-30T12:57:08.455Z,1.10
2023-04-30T13:01:15.147Z,1.15
2023-04-30T13:05:17.062Z,2.72
2023-04-30T13:09:19.013Z,2.33
2023-04-30T13:13:21.254Z,1.23
2023-04-30T13:17:23.321Z,1.77
2023-04-30T13:21:25.151Z,1.60
2023-04-30T13:25:27.015Z,1.30
2023-04-30T13:29:28.767Z,1.73
2023-04-30T13:33:30.511Z,0.90
2023-04-30T13:37:32.285Z,1.10
2023-04-30T13:41:34.062Z,1.17
2023-04-30T13:45:35.950Z,1.53
2023-04-30T13:49:38.077Z,1.35
2023-04-30T13:53:40.419Z,1.00
2023-04-30T13:57:42.204Z,1.20
2023-04-30T14:01:44.400Z,2.92
2023-04-30T14:05:46.620Z,2.17
2023-04-30T14:09:48.512Z,0.93
2023-04-30T14:13:50.276Z,1.00
2023-04-30T14:17:52.943Z,0.70
2023-04-30T14:25:57.299Z,2.17
2023-04-30T14:29:58.989Z,1.58
2023-04-30T14:34:01.118Z,1.08
2023-04-30T14:38:02.785Z,1.00
2023-04-30T14:42:04.825Z,0.90
2023-04-30T14:46:07.000Z,0.90
2023-04-30T14:50:09.462Z,0.60
2023-04-30T14:54:11.173Z,2.50
2023-04-30T14:58:12.859Z,2.40
2023-04-30T15:02:16.838Z,3.13
2023-04-30T15:06:19.215Z,1.27
2023-04-30T15:10:21.072Z,4.13
2023-04-30T15:14:23.220Z,3.27
2023-04-30T15:18:25.152Z,1.30
2023-04-30T15:22:26.982Z,1.70
2023-04-30T15:26:29.206Z,1.47
2023-04-30T15:30:30.944Z,1.35
2023-04-30T15:34:32.673Z,1.42
2023-04-30T15:38:34.821Z,0.80
2023-04-30T15:42:38.336Z,1.95
2023-04-30T15:46:40.404Z,2.53
2023-04-30T15:50:42.420Z,1.95
2023-04-30T15:54:44.313Z,1.37
2023-04-30T15:58:46.166Z,1.90
2023-04-30T16:02:47.874Z,6.17
2023-04-30T16:06:50.054Z,1.13
2023-04-30T16:10:51.965Z,1.30
2023-04-30T16:14:54.458Z,0.90
2023-04-30T16:18:56.167Z,1.58
2023-04-30T16:22:58.359Z,1.20
2023-04-30T16:27:00.138Z,0.80
2023-04-30T16:31:01.843Z,1.17
2023-04-30T16:35:03.902Z,6.93
2023-04-30T16:39:05.900Z,1.83
2023-04-30T16:43:08.057Z,1.30
2023-04-30T16:47:09.767Z,1.63
2023-04-30T16:51:11.572Z,2.53
2023-04-30T16:55:13.343Z,0.90
2023-04-30T16:59:15.028Z,0.70
2023-04-30T17:03:16.765Z,0.90
2023-04-30T17:07:18.903Z,1.60
2023-04-30T17:11:22.257Z,2.72
2023-04-30T17:15:24.045Z,3.38
2023-04-30T17:19:25.840Z,5.07
2023-04-30T17:23:27.863Z,2.20
2023-04-30T17:27:29.542Z,1.38
2023-04-30T17:31:31.301Z,1.15
2023-04-30T17:35:33.906Z,0.97
2023-04-30T17:43:38.116Z,0.70
2023-04-30T17:47:39.865Z,0.90
2023-04-30T17:51:41.532Z,0.73
2023-04-30T17:55:43.181Z,1.00
2023-04-30T17:59:44.946Z,0.80
2023-04-30T18:03:46.684Z,0.90
2023-04-30T18:07:48.650Z,1.00
2023-04-30T18:11:50.500Z,1.40
2023-04-30T18:15:52.158Z,1.37
2023-04-30T18:19:54.786Z,1.20
2023-04-30T18:23:56.628Z,3.40
2023-04-30T18:27:59.557Z,4.40
2023-04-30T18:32:01.804Z,3.10
2023-04-30T18:36:05.993Z,3.75
2023-04-30T18:40:08.404Z,9.27
2023-04-30T18:44:13.879Z,4.82
2023-04-30T18:48:17.125Z,2.10
2023-04-30T18:52:18.755Z,1.60
2023-04-30T18:56:21.979Z,1.80
2023-04-30T19:00:23.622Z,2.80
2023-04-30T19:04:25.432Z,3.60
2023-04-30T19:08:27.275Z,4.77
2023-04-30T19:12:28.978Z,4.97
2023-04-30T19:16:30.745Z,4.50
2023-04-30T19:20:32.374Z,4.03
2023-04-30T19:24:34.050Z,3.85
2023-04-30T19:28:35.776Z,3.15
2023-04-30T19:32:37.446Z,3.17
2023-04-30T19:36:41.393Z,2.67
2023-04-30T19:40:47.894Z,4.32
2023-04-30T19:44:52.946Z,4.75
2023-04-30T19:48:54.714Z,4.10
2023-04-30T19:52:56.376Z,3.17
2023-04-30T19:56:58.141Z,3.67
2023-04-30T20:01:00.436Z,2.53
2023-04-30T20:05:02.081Z,3.00
2023-04-30T20:09:04.098Z,5.50
2023-04-30T20:13:06.961Z,8.67
2023-04-30T20:21:10.464Z,17.92
2023-04-30T20:25:12.191Z,11.07
2023-04-30T20:29:13.886Z,9.18
2023-04-30T20:33:16.356Z,9.82
2023-04-30T20:37:18.056Z,8.70
2023-04-30T20:41:19.856Z,3.72
2023-04-30T20:45:23.111Z,3.42
2023-04-30T20:49:26.972Z,5.18
2023-04-30T20:53:28.675Z,6.05
2023-04-30T20:57:30.307Z,5.55
2023-04-30T21:01:32.011Z,6.53
2023-04-30T21:05:34.235Z,3.95
2023-04-30T21:09:36.899Z,4.40
2023-04-30T21:13:38.655Z,4.40
2023-04-30T21:17:40.527Z,4.25
2023-04-30T21:21:42.197Z,4.85
2023-04-30T21:25:43.852Z,5.38
2023-04-30T21:29:45.882Z,5.38
2023-04-30T21:33:48.130Z,5.13
2023-04-30T21:37:50.081Z,7.80
2023-04-30T21:41:51.820Z,50.65
2023-04-30T21:45:53.725Z,5.88
2023-04-30T21:49:55.626Z,3.80
2023-04-30T21:53:57.514Z,4.22
2023-04-30T21:57:59.181Z,5.70
2023-04-30T22:02:07.351Z,4.70
2023-04-30T22:06:14.956Z,3.50
2023-04-30T22:10:16.852Z,3.80
2023-04-30T22:14:18.546Z,16.27
2023-04-30T22:18:21.178Z,4.25
2023-04-30T22:22:23.161Z,10.70
2023-04-30T22:26:25.567Z,4.35
2023-04-30T22:30:27.292Z,5.15
2023-04-30T22:34:29.306Z,5.45
2023-04-30T22:38:31.438Z,9.23
2023-04-30T22:42:34.065Z,3.77
2023-04-30T22:46:36.725Z,4.65
2023-04-30T22:50:38.817Z,3.65
2023-04-30T22:54:41.172Z,3.53
2023-04-30T22:58:42.757Z,3.08
2023-04-30T23:02:44.394Z,3.97
2023-04-30T23:06:46.411Z,2.70
2023-04-30T23:10:48.083Z,6.20
2023-04-30T23:14:50.866Z,4.35
2023-04-30T23:18:52.566Z,3.58
2023-04-30T23:22:54.243Z,4.05
2023-04-30T23:26:57.686Z,4.70
2023-04-30T23:30:59.391Z,3.20
2023-04-30T23:35:01.026Z,3.33
2023-04-30T23:39:04.498Z,3.08
2023-04-30T23:43:06.217Z,4.22
2023-04-30T23:47:07.827Z,5.28
2023-04-30T23:51:09.692Z,3.00
2023-04-30T23:55:11.459Z,3.00
2023-04-30T23:59:13.873Z,4.13
